Time;durP1;ratioP1;P1;durP2;ratioP2;P2;SDS_P1;SDS_P2;PMS_P1;PMS_P2;Temp;Humidity;BMP_temperature;BMP_pressure;BME280_temperature;BME280_humidity;BME280_pressure;Samples;Min_cycle;Max_cycle;Signal;HPM_P1;HPM_P2
2022/05/20 00:00:14;;;;;;;8.63;6.57;;;;;;;21.28;100.00;99774.22;5074384;28;20466;-81
2022/05/20 00:02:41;;;;;;;11.20;7.00;;;;;;;21.35;100.00;99763.53;5075452;28;20438;-81
2022/05/20 00:05:08;;;;;;;8.30;6.30;;;;;;;21.30;100.00;99764.00;5074992;28;20514;-81
2022/05/20 00:07:35;;;;;;;9.57;6.87;;;;;;;21.33;100.00;99762.81;5074335;28;20435;-81
2022/05/20 00:10:02;;;;;;;8.17;7.30;;;;;;;21.19;100.00;99759.59;5074162;28;20485;-80
2022/05/20 00:12:29;;;;;;;7.83;6.47;;;;;;;21.16;100.00;99748.06;5074096;28;20451;-81
2022/05/20 00:14:55;;;;;;;7.67;6.87;;;;;;;21.09;100.00;99746.97;5073854;28;20466;-81
2022/05/20 00:17:23;;;;;;;7.97;6.97;;;;;;;21.11;100.00;99750.41;5074328;28;20533;-81
2022/05/20 00:19:50;;;;;;;9.40;6.97;;;;;;;20.95;100.00;99751.94;5074940;28;20435;-81
2022/05/20 00:22:17;;;;;;;8.57;6.67;;;;;;;21.08;100.00;99756.19;5074511;28;20435;-81
2022/05/20 00:27:24;;;;;;;7.27;6.37;;;;;;;21.34;100.00;99754.41;5073866;28;21070;-81
2022/05/20 00:29:50;;;;;;;9.87;6.97;;;;;;;21.37;100.00;99743.19;5073909;28;20435;-82
2022/05/20 00:32:17;;;;;;;7.37;6.67;;;;;;;21.40;100.00;99739.25;5072856;28;20437;-81
2022/05/20 00:34:45;;;;;;;7.93;6.70;;;;;;;21.12;100.00;99742.06;5073200;28;20443;-81
2022/05/20 00:37:11;;;;;;;10.60;7.33;;;;;;;21.12;100.00;99731.09;5073672;28;20404;-81
2022/05/20 00:39:38;;;;;;;7.23;6.57;;;;;;;20.89;100.00;99722.41;5073532;28;20427;-81
2022/05/20 00:42:12;;;;;;;10.80;6.53;;;;;;;21.09;100.00;99722.31;5073584;28;20442;-81
2022/05/20 00:44:39;;;;;;;7.90;7.00;;;;;;;21.10;100.00;99715.81;5073455;28;20454;-80
2022/05/20 00:47:05;;;;;;;8.50;7.43;;;;;;;21.00;100.00;99724.09;5073568;28;20519;-81
2022/05/20 00:49:34;;;;;;;9.03;6.00;;;;;;;20.95;100.00;99727.28;5072998;28;20446;-81
2022/05/20 00:52:05;;;;;;;11.63;7.00;;;;;;;20.80;100.00;99724.22;5073082;28;20565;-81
2022/05/20 00:54:37;;;;;;;10.60;7.57;;;;;;;20.61;100.00;99721.56;5073139;28;20502;-81
2022/05/20 00:57:06;;;;;;;8.07;7.10;;;;;;;20.50;100.00;99725.31;5073268;28;20428;-81
2022/05/20 00:59:37;;;;;;;8.23;6.60;;;;;;;20.40;100.00;99722.63;5072579;28;20435;-81
2022/05/20 01:02:09;;;;;;;9.73;7.13;;;;;;;20.42;100.00;99717.03;5073453;28;20423;-81
2022/05/20 01:04:37;;;;;;;15.80;9.40;;;;;;;20.39;100.00;99720.88;5072672;28;20426;-81
2022/05/20 01:07:05;;;;;;;10.33;8.73;;;;;;;20.67;100.00;99715.50;5072743;28;20430;-81
2022/05/20 01:09:32;;;;;;;9.43;7.93;;;;;;;20.66;100.00;99726.59;5072776;28;20442;-81
2022/05/20 01:11:59;;;;;;;10.43;7.70;;;;;;;20.71;100.00;99721.50;5072237;28;20541;-81
2022/05/20 01:14:27;;;;;;;9.17;7.50;;;;;;;20.67;100.00;99720.09;5072427;28;20430;-81
2022/05/20 01:16:53;;;;;;;9.50;7.70;;;;;;;20.71;100.00;99721.50;5072727;28;20968;-80
2022/05/20 01:19:27;;;;;;;8.70;7.80;;;;;;;20.81;100.00;99706.78;5072441;28;20502;-81
2022/05/20 01:21:53;;;;;;;10.03;8.93;;;;;;;20.58;100.00;99706.31;5072770;28;20427;-81
2022/05/20 01:24:21;;;;;;;11.73;7.97;;;;;;;20.68;100.00;99708.16;5072470;28;20525;-81
2022/05/20 01:26:48;;;;;;;8.43;7.63;;;;;;;20.71;100.00;99716.03;5072804;28;20422;-81
2022/05/20 01:29:15;;;;;;;9.03;8.13;;;;;;;20.59;100.00;99704.44;5072180;28;20434;-81
2022/05/20 01:31:41;;;;;;;9.57;8.57;;;;;;;20.58;100.00;99717.25;5072354;28;20445;-81
2022/05/20 01:34:08;;;;;;;9.07;8.17;;;;;;;20.51;100.00;99705.19;5072634;28;20434;-81
2022/05/20 01:36:35;;;;;;;8.90;8.10;;;;;;;20.33;100.00;99709.72;5072694;28;20494;-81
2022/05/20 01:39:01;;;;;;;9.90;8.30;;;;;;;20.37;100.00;99705.63;5072649;28;20934;-81
2022/05/20 01:41:34;;;;;;;8.70;7.90;;;;;;;20.34;100.00;99709.53;5071552;28;20435;-82
2022/05/20 01:44:08;;;;;;;11.77;8.60;;;;;;;20.33;100.00;99701.50;5072294;28;20423;-81
2022/05/20 01:46:40;;;;;;;10.80;8.53;;;;;;;20.25;100.00;99704.13;5072615;28;20524;-81
2022/05/20 01:49:19;;;;;;;9.17;8.20;;;;;;;20.25;100.00;99704.13;5072336;28;20430;-81
2022/05/20 01:51:50;;;;;;;9.20;8.30;;;;;;;20.30;100.00;99699.06;5071809;28;20474;-81
2022/05/20 01:54:24;;;;;;;13.93;8.60;;;;;;;20.37;100.00;99702.91;5072198;28;20442;-81
2022/05/20 01:56:58;;;;;;;12.33;9.73;;;;;;;20.43;100.00;99707.78;5072336;28;20482;-82
2022/05/20 01:59:30;;;;;;;9.70;8.80;;;;;;;20.51;100.00;99702.44;5071833;28;20465;-81
2022/05/20 02:02:03;;;;;;;10.17;9.17;;;;;;;20.47;100.00;99701.00;5072046;28;20441;-82
2022/05/20 02:04:35;;;;;;;11.50;10.30;;;;;;;20.17;100.00;99691.16;5071694;28;20427;-81
2022/05/20 02:07:06;;;;;;;12.83;10.00;;;;;;;20.28;100.00;99692.88;5072366;28;20804;-81
2022/05/20 02:09:39;;;;;;;11.43;10.40;;;;;;;20.19;100.00;99697.34;5072160;28;20446;-81
2022/05/20 02:12:11;;;;;;;12.10;11.00;;;;;;;20.17;100.00;99697.53;5071371;28;20522;-82
2022/05/20 02:14:43;;;;;;;11.17;10.17;;;;;;;20.04;100.00;99687.94;5071992;28;20430;-81
2022/05/20 02:17:14;;;;;;;11.90;10.73;;;;;;;19.90;100.00;99700.16;5071573;28;20467;-81
2022/05/20 02:19:48;;;;;;;11.40;10.30;;;;;;;20.06;100.00;99697.69;5071465;28;20530;-82
2022/05/20 02:22:18;;;;;;;10.83;9.90;;;;;;;20.06;100.00;99694.06;5071469;28;20438;-81
2022/05/20 02:24:47;;;;;;;11.70;10.50;;;;;;;20.19;100.00;99695.50;5071515;28;20423;-81
2022/05/20 02:27:19;;;;;;;12.60;10.93;;;;;;;20.25;100.00;99704.13;5071778;28;20909;-81
2022/05/20 02:29:51;;;;;;;12.33;11.13;;;;;;;20.27;100.00;99700.22;5070596;28;20433;-81
2022/05/20 02:32:23;;;;;;;13.40;12.13;;;;;;;20.32;100.00;99694.31;5071982;28;20888;-81
2022/05/20 02:34:52;;;;;;;13.27;11.97;;;;;;;20.35;100.00;99694.00;5072125;28;20974;-81
2022/05/20 02:37:24;;;;;;;13.57;12.23;;;;;;;20.05;100.00;99692.38;5071766;28;20509;-81
2022/05/20 02:39:51;;;;;;;12.60;11.30;;;;;;;20.17;100.00;99691.16;5070479;28;20439;-81
2022/05/20 02:42:19;;;;;;;13.50;12.17;;;;;;;20.07;100.00;99690.34;5071709;28;20529;-81
2022/05/20 02:44:45;;;;;;;12.43;11.03;;;;;;;20.04;100.00;99696.13;5071568;28;20449;-81
2022/05/20 02:47:12;;;;;;;13.53;12.10;;;;;;;19.93;100.00;99694.41;5071539;28;20432;-81
2022/05/20 02:49:39;;;;;;;12.70;11.50;;;;;;;20.06;100.00;99686.75;5070531;28;20445;-82
2022/05/20 02:52:07;;;;;;;11.83;10.63;;;;;;;20.15;100.00;99693.22;5071130;28;20477;-81
2022/05/20 02:54:34;;;;;;;16.00;10.90;;;;;;;20.22;100.00;99694.34;5071695;28;20992;-82
2022/05/20 02:57:01;;;;;;;12.90;11.70;;;;;;;20.40;100.00;99694.44;5071674;28;20462;-81
2022/05/20 03:04:56;;;;;;;11.80;10.67;;;;;;;20.60;100.00;99698.84;5070650;28;20476;-81
2022/05/20 03:07:23;;;;;;;13.40;10.43;;;;;;;20.72;100.00;99693.16;5071506;28;20518;-82
2022/05/20 03:09:51;;;;;;;11.67;10.53;;;;;;;20.72;100.00;99685.81;5071330;28;20428;-81
2022/05/20 03:12:18;;;;;;;13.23;11.10;;;;;;;20.71;100.00;99683.22;5071606;28;20776;-81
2022/05/20 03:14:46;;;;;;;11.43;10.23;;;;;;;20.78;100.00;99677.00;5071696;28;20955;-81
2022/05/20 03:17:13;;;;;;;11.60;10.47;;;;;;;20.84;100.00;99680.97;5071407;28;20975;-81
2022/05/20 03:19:40;;;;;;;11.17;10.13;;;;;;;20.87;100.00;99677.06;5070747;28;20451;-81
2022/05/20 03:22:07;;;;;;;13.17;9.70;;;;;;;21.11;100.00;99674.59;5071020;28;20423;-81
2022/05/20 03:24:34;;;;;;;12.20;11.00;;;;;;;21.10;100.00;99661.06;5070641;28;20518;-81
2022/05/20 03:27:01;;;;;;;12.07;8.83;;;;;;;21.11;100.00;99668.28;5070862;28;20435;-81
2022/05/20 03:29:28;;;;;;;10.00;9.00;;;;;;;20.94;100.00;99657.16;5071474;28;20780;-82
2022/05/20 03:31:56;;;;;;;11.00;9.60;;;;;;;21.07;100.00;99661.38;5071289;28;20908;-81
2022/05/20 03:34:22;;;;;;;10.40;9.50;;;;;;;21.10;100.00;99658.31;5071854;28;20452;-81
2022/05/20 03:36:50;;;;;;;12.60;10.80;;;;;;;20.93;100.00;99660.91;5074727;28;20469;-81
2022/05/20 03:39:20;;;;;;;10.40;9.30;;;;;;;20.85;100.00;99657.22;5074287;28;20431;-81
2022/05/20 03:41:48;;;;;;;10.53;9.40;;;;;;;20.89;100.00;99653.16;5074867;28;20446;-81
2022/05/20 03:44:16;;;;;;;12.23;11.03;;;;;;;20.71;100.00;99651.22;5073572;28;20467;-80
2022/05/20 03:46:44;;;;;;;11.30;10.20;;;;;;;20.67;100.00;99648.97;5074185;28;20533;-81
2022/05/20 03:49:13;;;;;;;13.50;10.70;;;;;;;20.56;100.00;99652.75;5074889;28;20881;-81
2022/05/20 03:51:40;;;;;;;12.10;10.80;;;;;;;20.60;100.00;99646.00;5074068;28;20474;-82
2022/05/20 03:54:07;;;;;;;12.67;9.67;;;;;;;20.57;100.00;99654.50;5074178;28;20439;-81
2022/05/20 03:56:34;;;;;;;12.23;11.03;;;;;;;20.49;100.00;99647.03;5075377;28;20477;-81
2022/05/20 03:59:00;;;;;;;12.53;11.33;;;;;;;20.38;100.00;99656.28;5073989;28;20457;-81
2022/05/20 04:04:18;;;;;;;12.70;11.27;;;;;;;20.37;100.00;99649.09;5063458;28;20836;-81
2022/05/20 04:06:44;;;;;;;12.73;11.43;;;;;;;20.29;100.00;99648.97;5074149;28;20510;-82
2022/05/20 04:09:11;;;;;;;13.90;11.80;;;;;;;20.16;100.00;99652.03;5073849;28;20449;-81
2022/05/20 04:11:38;;;;;;;14.53;13.03;;;;;;;20.19;100.00;99659.09;5073749;28;20490;-81
2022/05/20 04:14:05;;;;;;;12.73;11.33;;;;;;;20.25;100.00;99660.38;5074119;28;20485;-80
2022/05/20 04:16:32;;;;;;;15.90;12.03;;;;;;;20.30;100.00;99655.31;5072223;28;20478;-81
2022/05/20 04:18:59;;;;;;;14.37;12.20;;;;;;;20.24;100.00;99661.38;5074704;28;20914;-82
2022/05/20 04:21:27;;;;;;;13.93;12.03;;;;;;;20.19;100.00;99667.28;5074564;28;20443;-82
2022/05/20 04:23:53;;;;;;;12.43;11.33;;;;;;;20.23;100.00;99673.31;5074086;28;20454;-82
2022/05/20 04:26:20;;;;;;;13.20;11.80;;;;;;;20.18;100.00;99671.03;5073978;28;20568;-81
2022/05/20 04:28:47;;;;;;;13.53;12.13;;;;;;;20.15;100.00;99672.19;5073580;28;20914;-81
2022/05/20 04:31:13;;;;;;;14.20;11.60;;;;;;;20.06;100.00;99673.09;5073932;28;20557;-81
2022/05/20 04:33:40;;;;;;;12.20;10.77;;;;;;;19.99;100.00;99669.25;5073436;28;20431;-82
2022/05/20 04:36:08;;;;;;;12.50;11.30;;;;;;;20.09;100.00;99661.84;5073452;28;20482;-81
2022/05/20 04:38:36;;;;;;;13.23;11.90;;;;;;;20.02;100.00;99660.72;5074494;28;20493;-81
2022/05/20 04:49:15;;;;;;;12.97;11.77;;;;;;;20.08;100.00;99671.09;5073319;28;20792;-80
2022/05/20 04:51:42;;;;;;;13.50;12.10;;;;;;;20.09;100.00;99672.78;5073060;28;20557;-80
2022/05/20 04:56:55;;;;;;;13.00;11.60;;;;;;;20.52;100.00;99675.94;5072761;28;20470;-80
2022/05/20 04:59:23;;;;;;;13.90;11.90;;;;;;;20.59;100.00;99680.69;5072769;28;20489;-81
2022/05/20 05:01:50;;;;;;;15.13;11.77;;;;;;;20.63;100.00;99677.66;5072750;28;20427;-80
2022/05/20 05:04:16;;;;;;;13.10;11.70;;;;;;;20.76;100.00;99675.44;5072766;28;20427;-80
2022/05/20 05:06:43;;;;;;;12.23;11.03;;;;;;;20.84;100.00;99680.97;5072646;28;20427;-80
2022/05/20 05:09:11;;;;;;;12.63;11.33;;;;;;;20.84;100.00;99680.97;5072512;28;20450;-80
2022/05/20 05:11:40;;;;;;;14.53;12.53;;;;;;;20.91;100.00;99681.22;5072976;28;20459;-80
2022/05/20 05:14:07;;;;;;;13.43;11.80;;;;;;;21.16;100.00;99685.09;5072611;28;20438;-80
2022/05/20 05:16:34;;;;;;;12.83;11.57;;;;;;;21.31;100.00;99678.06;5072439;28;20485;-81
2022/05/20 05:19:00;;;;;;;12.20;11.20;;;;;;;21.29;100.00;99679.25;5072895;28;20867;-81
2022/05/20 05:21:27;;;;;;;14.47;12.20;;;;;;;21.49;100.00;99677.25;5072647;28;20916;-80
2022/05/20 05:23:54;;;;;;;14.40;13.07;;;;;;;21.72;100.00;99681.19;5072256;28;20430;-80
2022/05/20 05:26:22;;;;;;;12.30;11.00;;;;;;;21.73;100.00;99674.72;5072764;28;20419;-81
2022/05/20 05:28:49;;;;;;;14.67;11.43;;;;;;;21.72;100.00;99677.59;5072763;28;20876;-80
2022/05/20 05:31:16;;;;;;;12.70;11.23;;;;;;;21.77;100.00;99681.56;5070765;28;20514;-83
2022/05/20 05:33:42;;;;;;;12.50;11.30;;;;;;;22.06;100.00;99675.78;5052183;28;21025;-83
2022/05/20 05:36:09;;;;;;;13.87;10.70;;;;;;;22.07;100.00;99676.69;5071127;28;20474;-83
2022/05/20 05:38:36;;;;;;;13.60;10.90;;;;;;;21.98;100.00;99677.59;5071074;28;20528;-84
2022/05/20 05:41:02;;;;;;;12.90;11.70;;;;;;;22.15;100.00;99678.59;5071402;28;20526;-82
2022/05/20 05:43:30;;;;;;;12.90;11.37;;;;;;;22.49;100.00;99687.72;5071308;28;20462;-82
2022/05/20 05:45:57;;;;;;;12.00;10.80;;;;;;;22.58;100.00;99679.53;5071646;28;20455;-83
2022/05/20 05:48:23;;;;;;;15.53;11.13;;;;;;;22.72;100.00;99680.81;5071525;28;20503;-82
2022/05/20 05:50:50;;;;;;;12.27;11.00;;;;;;;22.58;100.00;99680.41;5071286;28;20502;-82
2022/05/20 05:53:20;;;;;;;12.70;11.20;;;;;;;22.74;100.00;99676.00;5071453;28;20496;-81
2022/05/20 05:55:48;;;;;;;13.33;11.20;;;;;;;22.81;100.00;99688.03;5071860;28;20909;-82
2022/05/20 05:58:16;;;;;;;11.53;9.30;;;;;;;22.86;100.00;99682.91;5071514;28;20837;-80
2022/05/20 06:00:44;;;;;;;16.40;9.60;;;;;;;22.98;98.91;99677.97;5071330;28;20533;-83
2022/05/20 06:03:14;;;;;;;14.50;10.23;;;;;;;22.98;96.88;99686.22;5071072;28;20439;-82
2022/05/20 06:05:41;;;;;;;17.90;9.03;;;;;;;23.02;94.65;99680.25;5071336;28;20438;-82
2022/05/20 06:08:08;;;;;;;10.23;8.90;;;;;;;23.29;91.65;99689.22;5071025;28;20858;-83
2022/05/20 06:10:35;;;;;;;7.97;7.20;;;;;;;23.38;85.71;99693.72;5070977;28;20438;-82
2022/05/20 06:13:01;;;;;;;9.90;8.07;;;;;;;23.49;85.52;99685.16;5071508;28;20434;-80
2022/05/20 06:15:29;;;;;;;12.80;7.90;;;;;;;23.49;83.64;99687.03;5072512;28;20875;-84
2022/05/20 06:17:57;;;;;;;13.30;8.07;;;;;;;23.48;84.17;99680.69;5071249;28;20463;-83
2022/05/20 06:20:25;;;;;;;13.53;7.97;;;;;;;23.62;82.60;99683.78;5072587;28;20817;-81
2022/05/20 06:22:52;;;;;;;14.23;8.60;;;;;;;23.68;79.80;99691.34;5071534;28;20452;-82
2022/05/20 06:25:19;;;;;;;9.20;7.67;;;;;;;23.84;77.50;99685.88;5071890;28;20470;-80
2022/05/20 06:27:46;;;;;;;10.30;8.50;;;;;;;23.98;77.71;99694.44;5071210;28;20428;-81
2022/05/20 06:30:17;;;;;;;15.10;8.70;;;;;;;24.05;77.36;99690.81;5071081;28;20438;-81
2022/05/20 06:32:44;;;;;;;7.57;6.70;;;;;;;24.22;76.05;99694.41;5062633;28;20815;-80
2022/05/20 06:40:44;;;;;;;8.60;7.40;;;;;;;24.65;72.10;99692.25;5071360;28;20834;-80
2022/05/20 06:43:12;;;;;;;9.57;6.80;;;;;;;24.71;70.40;99693.44;5070516;28;20442;-80
2022/05/20 06:45:39;;;;;;;11.37;5.10;;;;;;;24.71;65.54;99682.41;5071887;28;20457;-81
2022/05/20 06:48:06;;;;;;;10.17;5.20;;;;;;;24.57;64.75;99681.28;5072199;28;20434;-81
2022/05/20 06:50:37;;;;;;;8.83;5.33;;;;;;;24.69;61.98;99681.72;5071417;28;20462;-81
2022/05/20 06:53:03;;;;;;;5.90;5.20;;;;;;;24.68;61.84;99671.78;5064718;28;20450;-82
2022/05/20 06:55:30;;;;;;;7.57;5.30;;;;;;;24.83;61.41;99675.50;5051260;28;20454;-82
2022/05/20 06:57:57;;;;;;;9.03;4.90;;;;;;;24.99;60.42;99671.78;5050923;28;20976;-83
2022/05/20 07:00:24;;;;;;;8.03;5.30;;;;;;;25.20;57.63;99678.59;5070170;28;20443;-84
2022/05/20 07:02:50;;;;;;;10.07;4.93;;;;;;;25.05;57.81;99682.06;5070552;28;20430;-83
2022/05/20 07:05:18;;;;;;;10.50;6.40;;;;;;;25.02;57.72;99678.84;5070886;28;20844;-83
2022/05/20 07:07:46;;;;;;;6.67;5.43;;;;;;;25.01;57.67;99668.84;5070086;28;20434;-84
2022/05/20 07:10:14;;;;;;;7.10;4.47;;;;;;;25.19;56.80;99669.47;5072848;28;20447;-80
2022/05/20 07:12:41;;;;;;;8.23;4.57;;;;;;;25.40;55.43;99663.28;5075320;28;20885;-81
2022/05/20 07:15:09;;;;;;;8.63;4.43;;;;;;;25.63;54.83;99670.69;5074937;28;20438;-82
2022/05/20 07:17:37;;;;;;;7.30;5.53;;;;;;;25.61;54.08;99670.88;5075379;28;21384;-82
2022/05/20 07:20:04;;;;;;;8.80;5.93;;;;;;;25.53;53.73;99668.16;5075920;28;20453;-82
2022/05/20 07:22:31;;;;;;;10.77;5.50;;;;;;;25.74;53.64;99678.53;5076073;28;20437;-80
2022/05/20 07:24:59;;;;;;;6.33;5.07;;;;;;;25.89;53.50;99671.19;5077095;28;20521;-80
2022/05/20 07:27:25;;;;;;;11.97;9.10;;;;;;;25.82;52.99;99683.13;5075348;28;20496;-82
2022/05/20 07:29:52;;;;;;;8.87;4.50;;;;;;;25.99;51.78;99679.19;5074420;28;20434;-82
2022/05/20 07:32:18;;;;;;;12.50;5.13;;;;;;;25.92;52.52;99683.75;5074830;28;20451;-82
2022/05/20 07:34:45;;;;;;;9.07;5.77;;;;;;;26.03;52.55;99682.41;5075165;28;20431;-81
2022/05/20 07:37:11;;;;;;;5.17;4.40;;;;;;;26.13;51.50;99670.09;5077018;28;20486;-82
2022/05/20 07:39:38;;;;;;;16.73;7.80;;;;;;;26.13;51.82;99672.00;5074543;28;20439;-83
2022/05/20 07:42:07;;;;;;;6.80;4.77;;;;;;;26.36;50.62;99678.28;5073875;28;20513;-82
2022/05/20 07:44:36;;;;;;;13.10;5.10;;;;;;;26.33;50.83;99669.53;5073876;28;20458;-83
2022/05/20 07:47:02;;;;;;;6.90;4.40;;;;;;;26.28;50.93;99672.88;5073664;28;20510;-82
2022/05/20 07:49:29;;;;;;;6.00;4.67;;;;;;;26.24;51.56;99674.28;5074194;28;20519;-84
2022/05/20 07:51:57;;;;;;;8.37;5.40;;;;;;;25.82;52.53;99674.84;5073793;28;20478;-84
2022/05/20 07:54:27;;;;;;;10.97;5.63;;;;;;;26.11;52.47;99672.16;5073502;28;20485;-84
2022/05/20 07:56:59;;;;;;;11.03;4.70;;;;;;;26.31;51.69;99674.38;5074185;28;20423;-84
2022/05/20 07:59:30;;;;;;;12.07;5.30;;;;;;;26.27;52.19;99670.28;5073059;28;20866;-82
2022/05/20 08:01:58;;;;;;;9.40;5.97;;;;;;;26.56;51.23;99681.38;5073748;28;20438;-83
2022/05/20 08:07:16;;;;;;;6.90;4.77;;;;;;;26.79;50.42;99684.00;5072855;28;20931;-84
2022/05/20 08:09:43;;;;;;;10.30;5.20;;;;;;;26.82;50.06;99672.59;5073252;28;20530;-84
2022/05/20 08:12:10;;;;;;;7.43;4.90;;;;;;;26.95;50.52;99679.31;5073257;28;20431;-83
2022/05/20 08:14:38;;;;;;;12.60;5.03;;;;;;;26.83;50.28;99677.06;5073297;28;20446;-84
2022/05/20 08:17:05;;;;;;;10.37;4.97;;;;;;;26.93;49.60;99679.53;5072342;28;20909;-84
2022/05/20 08:19:33;;;;;;;7.40;6.30;;;;;;;27.06;49.86;99681.59;5073143;28;20442;-82
2022/05/20 08:22:00;;;;;;;7.90;5.47;;;;;;;27.30;48.80;99666.59;5072541;28;20431;-81
2022/05/20 08:24:26;;;;;;;6.20;5.03;;;;;;;27.56;47.94;99666.00;5065593;28;20455;-82
2022/05/20 08:26:53;;;;;;;7.07;4.57;;;;;;;27.57;47.63;99656.66;5053753;28;20432;-83
2022/05/20 08:29:20;;;;;;;9.53;5.10;;;;;;;27.56;47.09;99657.69;5064984;28;20526;-83
2022/05/20 08:31:48;;;;;;;8.47;4.47;;;;;;;27.41;47.63;99652.25;5072937;28;20439;-82
2022/05/20 08:34:15;;;;;;;6.20;4.50;;;;;;;27.51;47.83;99638.09;5073314;28;20427;-83
2022/05/20 08:36:42;;;;;;;7.87;4.80;;;;;;;27.70;47.47;99631.03;5073204;28;20623;-82
2022/05/20 08:39:12;;;;;;;9.47;5.10;;;;;;;27.94;46.95;99613.16;5072989;28;20582;-81
2022/05/20 08:41:42;;;;;;;8.30;4.90;;;;;;;28.02;46.41;99610.25;5073280;28;20482;-82
2022/05/20 08:44:12;;;;;;;8.60;4.73;;;;;;;28.09;46.36;99615.84;5072744;28;20881;-83
2022/05/20 08:46:40;;;;;;;10.03;4.07;;;;;;;28.01;46.40;99614.06;5073207;28;20423;-82
2022/05/20 08:49:11;;;;;;;8.30;4.97;;;;;;;27.58;46.96;99619.66;5071683;28;20482;-81
2022/05/20 08:51:41;;;;;;;7.57;5.33;;;;;;;27.83;45.99;99627.50;5072524;28;20532;-83
2022/05/20 08:54:08;;;;;;;8.43;4.30;;;;;;;27.81;45.77;99626.84;5072462;28;20455;-83
2022/05/20 08:56:37;;;;;;;9.70;4.53;;;;;;;27.45;46.14;99612.09;5072456;28;20429;-83
2022/05/20 08:59:08;;;;;;;8.47;5.20;;;;;;;27.33;46.56;99605.38;5072671;28;20817;-82
2022/05/20 09:01:37;;;;;;;7.10;4.57;;;;;;;27.41;46.81;99602.50;5073261;28;20420;-83
2022/05/20 09:04:06;;;;;;;10.73;4.47;;;;;;;27.49;46.20;99598.72;5072533;28;20427;-82
2022/05/20 09:06:38;;;;;;;12.30;4.67;;;;;;;27.43;47.01;99616.97;5072182;28;20812;-85
2022/05/20 09:09:09;;;;;;;10.30;4.80;;;;;;;27.42;46.89;99626.31;5071985;28;20427;-82
2022/05/20 09:11:36;;;;;;;6.83;4.20;;;;;;;27.56;46.89;99631.97;5072034;28;20597;-84
2022/05/20 09:16:58;;;;;;;9.90;4.20;;;;;;;27.62;46.63;99631.19;5072008;28;20410;-83
2022/05/20 09:19:28;;;;;;;8.07;4.10;;;;;;;27.67;46.60;99634.19;5072470;28;20466;-82
2022/05/20 09:22:04;;;;;;;7.63;5.47;;;;;;;27.81;46.52;99627.75;5072425;28;20415;-83
2022/05/20 09:24:38;;;;;;;8.33;4.93;;;;;;;28.00;46.03;99617.06;5061528;28;20440;-83
2022/05/20 09:27:06;;;;;;;8.20;5.10;;;;;;;28.45;45.24;99628.63;5068548;28;20435;-82
2022/05/20 09:29:38;;;;;;;8.00;4.90;;;;;;;28.28;45.43;99630.84;5072668;28;20477;-81
2022/05/20 09:32:07;;;;;;;8.03;4.17;;;;;;;28.19;45.71;99623.75;5071839;28;20435;-83
2022/05/20 09:34:36;;;;;;;9.80;4.30;;;;;;;28.44;45.07;99613.03;5071320;28;20894;-83
2022/05/20 09:37:07;;;;;;;7.63;4.43;;;;;;;28.52;45.21;99617.59;5071656;28;20769;-83
2022/05/20 09:39:38;;;;;;;10.03;4.87;;;;;;;28.27;45.18;99616.16;5071486;28;20505;-84
2022/05/20 09:42:13;;;;;;;8.20;4.77;;;;;;;28.33;44.85;99608.09;5071442;28;20434;-83
2022/05/20 09:44:43;;;;;;;10.03;5.10;;;;;;;28.28;45.01;99606.78;5071156;28;20440;-83
2022/05/20 09:47:19;;;;;;;9.03;5.30;;;;;;;28.18;45.25;99594.38;5071550;28;20444;-84
2022/05/20 09:49:52;;;;;;;10.37;4.60;;;;;;;28.65;44.99;99612.97;5072186;28;20438;-84
2022/05/20 09:52:24;;;;;;;9.70;5.00;;;;;;;29.14;44.09;99597.16;5070990;28;20470;-84
2022/05/20 09:55:01;;;;;;;8.63;4.43;;;;;;;29.23;43.85;99567.34;5071595;28;20829;-84
2022/05/20 09:57:31;;;;;;;10.60;4.53;;;;;;;29.01;43.57;99572.16;5071961;28;20957;-85
2022/05/20 10:00:05;;;;;;;6.33;4.17;;;;;;;28.94;43.89;99538.88;5071834;28;20430;-84
2022/05/20 10:02:36;;;;;;;7.97;4.50;;;;;;;28.75;44.09;99485.16;5070375;28;20435;-83
2022/05/20 10:05:13;;;;;;;8.10;5.10;;;;;;;28.45;45.33;99377.47;5071724;28;20434;-84
2022/05/20 10:07:57;;;;;;;7.10;4.70;;;;;;;28.37;45.84;99379.59;5071568;28;20518;-83
2022/05/20 10:10:34;;;;;;;6.70;4.13;;;;;;;28.77;44.75;99391.59;5071499;28;20427;-83
2022/05/20 10:13:03;;;;;;;5.27;4.23;;;;;;;29.14;44.01;99411.44;5071326;28;20530;-84
2022/05/20 10:15:34;;;;;;;15.17;4.97;;;;;;;29.24;44.01;99398.00;5071438;28;20453;-82
2022/05/20 10:18:10;;;;;;;7.30;4.00;;;;;;;29.50;43.55;99399.88;5071140;28;21018;-84
2022/05/20 10:20:41;;;;;;;9.33;4.30;;;;;;;29.68;43.15;99388.09;5070558;28;20897;-83
2022/05/20 10:23:16;;;;;;;11.33;4.77;;;;;;;30.00;42.38;99385.41;5071100;28;20447;-84
2022/05/20 10:25:53;;;;;;;9.20;4.17;;;;;;;30.03;41.49;99395.22;5071312;28;20430;-85
2022/05/20 10:34:04;;;;;;;7.83;4.67;;;;;;;29.13;42.80;99392.28;5070958;28;20457;-84
2022/05/20 10:36:40;;;;;;;10.20;4.50;;;;;;;29.26;43.04;99401.41;5070385;28;20442;-84
2022/05/20 10:39:20;;;;;;;7.40;4.60;;;;;;;29.45;42.87;99416.31;5070796;28;20462;-85
2022/05/20 10:41:58;;;;;;;11.00;4.90;;;;;;;29.47;42.94;99429.97;5070602;28;20526;-82
2022/05/20 10:50:25;;;;;;;6.10;4.27;;;;;;;29.29;43.65;99441.72;5074685;28;20506;-83
2022/05/20 10:53:06;;;;;;;10.57;4.40;;;;;;;29.34;42.49;99441.06;5074647;28;20537;-84
2022/05/20 10:55:43;;;;;;;5.00;3.73;;;;;;;29.31;42.55;99443.22;5074697;28;20900;-83
2022/05/20 10:58:44;;;;;;;14.20;4.97;;;;;;;29.60;41.82;99432.72;5074828;28;20474;-84
2022/05/20 11:01:22;;;;;;;6.90;4.70;;;;;;;29.62;41.63;99422.22;5074838;28;20422;-83
2022/05/20 11:04:14;;;;;;;8.70;3.53;;;;;;;29.88;41.50;99421.34;5074725;28;20835;-83
2022/05/20 11:07:17;;;;;;;7.07;3.97;;;;;;;29.87;41.47;99411.31;5070636;28;20783;-82
2022/05/20 11:09:57;;;;;;;8.03;4.47;;;;;;;29.71;42.11;99397.91;5050776;28;20458;-83
2022/05/20 11:12:35;;;;;;;9.33;4.60;;;;;;;29.65;42.26;99388.53;5074017;28;20430;-84
2022/05/20 11:15:21;;;;;;;5.67;4.13;;;;;;;29.76;42.70;99386.16;5074555;28;20418;-84
2022/05/20 11:18:03;;;;;;;6.03;4.10;;;;;;;29.37;43.11;99377.69;5074219;28;20867;-84
2022/05/20 11:21:12;;;;;;;5.27;3.90;;;;;;;29.27;43.71;99369.00;5074844;28;21168;-83
2022/05/20 11:23:52;;;;;;;7.57;4.13;;;;;;;29.70;42.51;99376.81;5043688;28;20440;-83
2022/05/20 11:26:45;;;;;;;8.73;5.00;;;;;;;29.97;41.85;99363.66;5057301;28;20434;-84
2022/05/20 11:29:32;;;;;;;8.03;4.30;;;;;;;30.02;42.30;99372.16;5054402;28;20424;-82
2022/05/20 11:32:03;;;;;;;13.83;4.30;;;;;;;30.27;41.71;99372.28;5072448;28;20843;-84
2022/05/20 11:35:01;;;;;;;8.30;4.00;;;;;;;30.60;40.60;99375.91;5074511;28;21293;-83
2022/05/20 11:37:44;;;;;;;8.63;4.00;;;;;;;31.02;40.18;99376.22;5067910;28;20469;-83
2022/05/20 11:40:37;;;;;;;7.70;4.40;;;;;;;31.30;39.31;99373.81;5073800;28;20941;-83
2022/05/20 11:43:29;;;;;;;6.93;4.60;;;;;;;31.33;39.72;99376.13;5059083;28;20811;-83
2022/05/20 11:46:07;;;;;;;8.90;4.67;;;;;;;31.78;38.69;99370.31;5054231;28;20937;-83
2022/05/20 11:48:59;;;;;;;5.20;4.40;;;;;;;31.27;39.56;99365.91;5054181;28;20434;-83
2022/05/20 11:51:59;;;;;;;4.67;4.10;;;;;;;31.57;39.01;99379.97;5064788;28;20480;-84
2022/05/20 11:54:34;;;;;;;8.53;3.93;;;;;;;31.55;38.43;99379.34;5074688;28;20434;-83
2022/05/20 11:57:07;;;;;;;5.90;4.27;;;;;;;30.47;40.24;99380.47;5074267;28;20429;-83
2022/05/20 11:59:39;;;;;;;6.50;3.97;;;;;;;30.43;41.03;99370.88;5073118;28;20471;-83
2022/05/20 12:02:10;;;;;;;8.17;4.40;;;;;;;31.17;39.70;99358.09;5073997;28;20459;-83
2022/05/20 12:04:40;;;;;;;10.10;5.20;;;;;;;31.77;38.63;99351.03;5074189;28;20908;-83
2022/05/20 12:07:10;;;;;;;8.03;4.30;;;;;;;32.07;37.90;99351.13;5073488;28;20443;-83
2022/05/20 12:09:39;;;;;;;5.30;3.73;;;;;;;32.34;37.65;99346.00;5073758;28;20870;-82
2022/05/20 12:12:27;;;;;;;6.57;3.80;;;;;;;32.58;37.24;99360.88;5073552;28;20435;-83
2022/05/20 12:15:03;;;;;;;8.20;3.80;;;;;;;31.89;38.05;99398.44;5073349;28;20435;-82
2022/05/20 12:17:33;;;;;;;6.40;4.40;;;;;;;30.70;40.30;99415.16;5073532;28;20893;-82
2022/05/20 12:26:22;;;;;;;10.80;6.07;;;;;;;29.95;46.33;99393.56;5072806;28;20530;-83